^^
Station Historical Data
Daily Summary for April 30, 2017 Units:  Metric    English   Both
« Previous Day
Next Day »
Daily Weekly Monthly Yearly Custom
  High: Low: Average:
Temperature: 29.6 °C 18.6 °C 22.9 °C
Dew Point: 13.8 °C 5.2 °C 8.3 °C
Humidity: 72% 23% 43%
Wind Speed: 37km/h 4.7km/h 19.5km/h
Wind Gust: 46.7km/h - -
Wind- - SSE
Pressure: 1015.1 hPa 1011.1 hPa -
Precipitation: 0 mm    
Historical Graphs
 
 
Tabular Data for April 30, 2017
Time Temperature Dew Point Pressure Wind Wind Speed Wind Gust Humidity Rainfall Rate (Hourly) solar Conditions
04:27 23.1 °C 5.5 °C 1013.1 hPa NNE 22.7 km/h 32.2 km/h 32% 0 mm 0.0 W/m2
04:32 23.1 °C 5.5 °C 1013.1 hPa NNE 24.1 km/h 30.6 km/h 32% 0 mm 0.0 W/m2
04:37 23.1 °C 5.5 °C 1013.1 hPa North 19.5 km/h 27.4 km/h 32% 0 mm 0.0 W/m2
04:42 23.1 °C 5.5 °C 1013.1 hPa NNE 13 km/h 32.2 km/h 32% 0 mm 0.0 W/m2
04:47 23 °C 5.4 °C 1013.1 hPa North 20.9 km/h 32.2 km/h 32% 0 mm 0.0 W/m2
04:52 23 °C 5.4 °C 1013.1 hPa NNE 17.7 km/h 33.8 km/h 32% 0 mm 0.0 W/m2
04:57 23 °C 5.4 °C 1013.1 hPa NNE 17.7 km/h 33.8 km/h 32% 0 mm 0.0 W/m2
05:02 23.1 °C 5.5 °C 1013.1 hPa North 33.8 km/h 35.4 km/h 32% 0 mm 0.0 W/m2
05:07 23.1 °C 5.5 °C 1013.4 hPa NNW 28.8 km/h 32.2 km/h 32% 0 mm 0.0 W/m2
05:22 23.1 °C 5.5 °C 1013.4 hPa North 24.1 km/h 33.8 km/h 32% 0 mm 0.0 W/m2
05:37 22.9 °C 5.8 °C 1013.8 hPa North 22.7 km/h 35.4 km/h 33% 0 mm 0.0 W/m2
05:42 22.8 °C 5.7 °C 1013.8 hPa North 20.9 km/h 35.4 km/h 33% 0 mm 0.0 W/m2
05:47 22.8 °C 5.7 °C 1013.8 hPa North 16.3 km/h 35.4 km/h 33% 0 mm 0.0 W/m2
05:52 22.8 °C 5.7 °C 1013.8 hPa North 20.9 km/h 33.8 km/h 33% 0 mm 0.0 W/m2
05:57 22.7 °C 5.6 °C 1013.8 hPa NNW 22.7 km/h 37 km/h 33% 0 mm 0.0 W/m2
06:03 22.7 °C 5.6 °C 1013.8 hPa North 32 km/h 33.8 km/h 33% 0 mm 0.0 W/m2
06:13 22.7 °C 5.6 °C 1014.1 hPa North 28.8 km/h 35.4 km/h 33% 0 mm 9.0 W/m2
06:18 22.7 °C 5.6 °C 1014.1 hPa North 11.1 km/h 33.8 km/h 33% 0 mm 14.0 W/m2
06:28 22.7 °C 5.6 °C 1014.1 hPa NNE 11.1 km/h 32.2 km/h 33% 0 mm 25.0 W/m2
06:43 22.8 °C 5.7 °C 1014.4 hPa North 27.4 km/h 32.2 km/h 33% 0 mm 47.0 W/m2
06:58 22.8 °C 5.2 °C 1014.4 hPa North 32 km/h 32.2 km/h 32% 0 mm 63.0 W/m2
07:03 22.9 °C 5.3 °C 1014.4 hPa North 27.4 km/h 45.1 km/h 32% 0 mm 116.0 W/m2
07:08 22.9 °C 5.3 °C 1014.1 hPa North 30.6 km/h 35.4 km/h 32% 0 mm 88.0 W/m2
07:13 23 °C 5.4 °C 1014.4 hPa North 20.9 km/h 35.4 km/h 32% 0 mm 102.0 W/m2
07:23 23.2 °C 5.6 °C 1014.4 hPa NNE 19.5 km/h 38.6 km/h 32% 0 mm 102.0 W/m2
07:42 23.3 °C 5.7 °C 1014.4 hPa NE 17.7 km/h 43.5 km/h 32% 0 mm 211.0 W/m2
07:53 23.6 °C 5.5 °C 1014.4 hPa NNE 14.3 km/h 43.5 km/h 31% 0 mm 243.0 W/m2
08:03 23.8 °C 5.2 °C 1015.1 hPa North 37 km/h 37 km/h 30% 0 mm 367.0 W/m2
08:22 24 °C 5.4 °C 1015.1 hPa NNE 17.7 km/h 37 km/h 30% 0 mm 415.0 W/m2
08:28 24 °C 5.4 °C 1015.1 hPa North 30.6 km/h 46.7 km/h 30% 0 mm 490.0 W/m2
08:38 23.9 °C 5.3 °C 1015.1 hPa North 37 km/h 37 km/h 30% 0 mm 105.0 W/m2
08:57 24.4 °C 5.7 °C 1015.1 hPa North 14.3 km/h 45.1 km/h 30% 0 mm 134.0 W/m2
09:06 24.1 °C 5.4 °C 1015.1 hPa NE 30.6 km/h 40.2 km/h 30% 0 mm 86.0 W/m2
09:13 24.2 °C 5.5 °C 1015.1 hPa NNE 24.1 km/h 38.6 km/h 30% 0 mm 513.0 W/m2
09:24 24.8 °C 5.6 °C 1015.1 hPa NNE 17.7 km/h 30.6 km/h 29% 0 mm 540.0 W/m2
11:29 27.7 °C 5.9 °C 1014.1 hPa North 19.5 km/h 40.2 km/h 25% 0 mm 728.0 W/m2
11:43 27.1 °C 5.4 °C 1013.8 hPa NNE 33.8 km/h 43.5 km/h 25% 0 mm 220.0 W/m2
11:48 28 °C 6.1 °C 1013.4 hPa NNW 17.7 km/h 43.5 km/h 25% 0 mm 689.0 W/m2
12:23 28.4 °C 5.9 °C 1012.8 hPa NNE 20.9 km/h 33.8 km/h 24% 0 mm 264.0 W/m2
12:44 28.3 °C 5.8 °C 1012.4 hPa North 28.8 km/h 40.2 km/h 24% 0 mm 214.0 W/m2
12:58 28.4 °C 5.9 °C 1012.1 hPa North 28.8 km/h 38.6 km/h 24% 0 mm 183.0 W/m2
13:06 28.6 °C 6.1 °C 1011.7 hPa NNW 25.9 km/h 29 km/h 24% 0 mm 343.0 W/m2
13:28 29.2 °C 6.6 °C 1011.7 hPa North 22.7 km/h 33.8 km/h 24% 0 mm 183.0 W/m2
14:04 29.6 °C 6.3 °C 1011.4 hPa North 19.5 km/h 25.7 km/h 23% 0 mm 341.0 W/m2
14:13 29.4 °C 6.7 °C 1011.1 hPa North 14.3 km/h 33.8 km/h 24% 0 mm 635.0 W/m2
14:23 29.6 °C 6.3 °C 1011.1 hPa NNE 28.8 km/h 35.4 km/h 23% 0 mm 202.0 W/m2
14:32 29.3 °C 6.6 °C 1011.1 hPa NNE 19.5 km/h 33.8 km/h 24% 0 mm 141.0 W/m2
14:41 29.1 °C 6.5 °C 1011.1 hPa North 30.6 km/h 30.6 km/h 24% 0 mm 137.0 W/m2
14:50 29.3 °C 6.6 °C 1011.1 hPa North 30.6 km/h 30.6 km/h 24% 0 mm 197.0 W/m2
21:01 20.4 °C 13.8 °C 1013.4 hPa WSW 13 km/h 16.1 km/h 66% 0 mm 0.0 W/m2
21:11 20.1 °C 13.8 °C 1013.4 hPa WSW 17.7 km/h 20.9 km/h 67% 0 mm 0.0 W/m2
21:21 19.9 °C 13.8 °C 1013.4 hPa SW 22.7 km/h 24.1 km/h 68% 0 mm 0.0 W/m2
21:32 19.5 °C 13.7 °C 1013.8 hPa SW 13 km/h 14.5 km/h 69% 0 mm 0.0 W/m2
21:41 19.4 °C 13.6 °C 1013.8 hPa SW 11.1 km/h 14.5 km/h 69% 0 mm 0.0 W/m2
21:47 19.3 °C 13.7 °C 1013.8 hPa SW 6.4 km/h 16.1 km/h 70% 0 mm 0.0 W/m2
21:57 19.1 °C 13.5 °C 1013.8 hPa SW 11.1 km/h 16.1 km/h 70% 0 mm 0.0 W/m2
22:02 19.1 °C 13.7 °C 1013.8 hPa SW 13 km/h 14.5 km/h 71% 0 mm 0.0 W/m2
22:07 19 °C 13.6 °C 1013.8 hPa SW 11.1 km/h 12.9 km/h 71% 0 mm 0.0 W/m2
22:27 19 °C 13.6 °C 1013.8 hPa SW 14.3 km/h 16.1 km/h 71% 0 mm 0.0 W/m2
22:37 18.9 °C 13.5 °C 1013.8 hPa SW 11.1 km/h 14.5 km/h 71% 0 mm 0.0 W/m2
22:42 18.9 °C 13.5 °C 1013.8 hPa SW 11.1 km/h 17.7 km/h 71% 0 mm 0.0 W/m2
22:47 18.8 °C 13.4 °C 1013.8 hPa SW 14.3 km/h 14.5 km/h 71% 0 mm 0.0 W/m2
22:58 18.7 °C 13.3 °C 1013.8 hPa SW 13 km/h 13 km/h 71% 0 mm 0.0 W/m2
23:03 18.7 °C 13.5 °C 1014.1 hPa SW 11.1 km/h 14.5 km/h 72% 0 mm 0.0 W/m2
23:08 18.7 °C 13.5 °C 1014.1 hPa SW 11.1 km/h 16.1 km/h 72% 0 mm 0.0 W/m2
23:13 18.7 °C 13.5 °C 1014.1 hPa SW 14.3 km/h 14.5 km/h 72% 0 mm 0.0 W/m2
23:18 18.7 °C 13.5 °C 1014.1 hPa SW 13 km/h 16.1 km/h 72% 0 mm 0.0 W/m2
23:23 18.7 °C 13.5 °C 1014.1 hPa SW 6.4 km/h 12.9 km/h 72% 0 mm 0.0 W/m2
23:28 18.8 °C 13.6 °C 1014.1 hPa SW 9.7 km/h 11.3 km/h 72% 0 mm 0.0 W/m2
23:43 18.7 °C 13.5 °C 1014.1 hPa SW 7.9 km/h 12.9 km/h 72% 0 mm 0.0 W/m2
23:48 18.6 °C 13.5 °C 1014.1 hPa SW 4.7 km/h 8 km/h 72% 0 mm 0.0 W/m2
23:53 18.6 °C 13.5 °C 1014.1 hPa SW 4.7 km/h 6.4 km/h 72% 0 mm 0.0 W/m2
23:58 18.6 °C 13.5 °C 1014.1 hPa SW 6.4 km/h 8 km/h 72% 0 mm 0.0 W/m2
Canyon Roadhouse, Fishriver Canyon, Namibia
Compliments of Weather Underground - 2 mb